Data for 02/19/2007

Time Sea-Level Adjusted Pressure Absolute Pressure Temperature Relative Humidity Dew Point   
(mb) (inHg) (mb) (inHg) (C) (F) (%) (C) (F)
00:05 1008 29.77 837 24.72 -3.1 26.4 81 -5.9 21.4
00:10 1008 29.77 837 24.72 -3.4 25.9 80 -6.4 20.5
00:15 1008 29.77 837 24.72 -3.9 25 79 -7 19.4
00:20 1008 29.77 837 24.72 -4.2 24.5 81 -6.9 19.6
00:25 1008 29.77 837 24.72 -4.5 23.9 82 -7.1 19.2
00:30 1008 29.77 837 24.72 -4.9 23.2 80 -7.8 17.9
00:35 1008 29.77 837 24.72 -5.2 22.7 80 -8.1 17.4
00:40 1008 29.77 838 24.75 -5.7 21.8 80 -8.6 16.5
00:45 1008 29.77 838 24.75 -5.6 21.9 79 -8.7 16.3
00:50 1008 29.77 838 24.75 -5.4 22.3 80 -8.2 17.2
00:55 1008 29.77 838 24.75 -5.4 22.3 82 -8 17.7
01:00 1008 29.77 838 24.75 -5.4 22.3 78 -8.6 16.5
01:05 1008 29.77 837 24.72 -5.8 21.6 79 -8.8 16.1
01:10 1008 29.77 838 24.75 -6.3 20.6 81 -9 15.8
01:15 1008 29.77 838 24.75 -6.3 20.7 86 -8.3 17.1
01:20 1008 29.77 838 24.75 -5.7 21.8 83 -8.2 17.3
01:25 1008 29.77 838 24.75 -5.2 22.6 81 -8.1 17.5
01:30 1008 29.77 838 24.75 -5.1 22.9 79 -8.1 17.4
01:35 1008 29.77 838 24.75 -4.8 23.3 78 -8.1 17.5
01:40 1009 29.8 838 24.75 -4.8 23.3 79 -8 17.7
01:45 1009 29.8 838 24.75 -4.7 23.5 79 -7.9 17.8
01:50 1009 29.8 838 24.75 -4.7 23.6 79 -7.9 17.8
01:55 1009 29.8 838 24.75 -4.6 23.7 77 -8 17.6
02:00 1009 29.8 838 24.75 -4.4 24 77 -7.9 17.8
02:05 1009 29.8 838 24.75 -4.6 23.8 78 -7.9 17.8
02:10 1009 29.8 838 24.75 -4.5 23.9 78 -7.8 18
02:15 1009 29.8 838 24.75 -4.5 23.9 78 -7.9 17.8
02:20 1009 29.8 838 24.75 -4.4 24.1 77 -7.8 18
02:25 1009 29.8 838 24.75 -4.3 24.3 79 -7.4 18.6
02:30 1009 29.8 838 24.75 -4.1 24.6 78 -7.3 18.8
02:35 1009 29.8 838 24.75 -4.1 24.7 77 -7.5 18.4
02:40 1009 29.8 838 24.75 -4.4 24 78 -7.8 18
02:45 1009 29.8 838 24.75 -4.8 23.3 80 -7.7 18.1
02:50 1008 29.77 838 24.75 -4.9 23.2 81 -7.7 18.2
02:55 1008 29.77 838 24.75 -4.9 23.2 81 -7.7 18.1
03:00 1008 29.77 838 24.75 -4.9 23.2 81 -7.7 18.1
03:05 1008 29.77 838 24.75 -4.8 23.4 80 -7.8 18
03:10 1008 29.77 838 24.75 -4.8 23.4 79 -7.8 17.9
03:15 1008 29.77 838 24.75 -4.8 23.3 80 -7.7 18.2
03:20 1008 29.77 837 24.72 -4.9 23.2 81 -7.7 18.2
03:25 1008 29.77 837 24.72 -4.8 23.3 80 -7.8 18
03:30 1008 29.77 837 24.72 -4.8 23.4 80 -7.6 18.3
03:35 1008 29.77 837 24.72 -4.6 23.6 80 -7.6 18.3
03:40 1008 29.77 837 24.72 -4.7 23.5 82 -7.4 18.7
03:45 1008 29.77 837 24.72 -4.8 23.3 81 -7.6 18.3
03:50 1008 29.77 837 24.72 -4.6 23.7 78 -7.9 17.8
03:55 1008 29.77 837 24.72 -4.3 24.3 76 -7.8 17.9
04:00 1008 29.77 837 24.72 -4.2 24.5 76 -7.8 18
04:05 1008 29.77 837 24.72 -4 24.7 76 -7.8 18
04:10 1008 29.77 837 24.72 -4.1 24.7 76 -7.7 18.2
04:15 1008 29.77 837 24.72 -4.2 24.4 77 -7.6 18.3
04:20 1008 29.77 837 24.72 -4.1 24.7 76 -7.7 18.1
04:25 1008 29.77 837 24.72 -4 24.9 74 -7.9 17.8
04:30 1008 29.77 838 24.75 -3.8 25.1 73 -8 17.6
04:35 1008 29.77 838 24.75 -3.8 25.1 72 -8.2 17.3
04:40 1008 29.77 838 24.75 -3.8 25.2 71 -8.4 17
04:45 1008 29.77 838 24.75 -3.5 25.7 68 -8.6 16.6
04:50 1009 29.8 838 24.75 -3.3 26 67 -8.7 16.4
04:55 1009 29.8 838 24.75 -3.3 26.1 65 -8.9 16
05:00 1009 29.8 838 24.75 -3.2 26.3 69 -8.1 17.5
05:05 1009 29.8 838 24.75 -3.4 25.8 68 -8.5 16.7
05:10 1009 29.8 838 24.75 -3.5 25.7 71 -8.1 17.4
05:15 1009 29.8 838 24.75 -3.6 25.6 71 -8.1 17.5
05:20 1009 29.8 838 24.75 -3.7 25.3 73 -7.9 17.7
05:25 1009 29.8 838 24.75 -3.8 25.2 74 -7.7 18.1
05:30 1009 29.8 838 24.75 -3.9 24.9 75 -7.7 18.1
05:35 1009 29.8 838 24.75 -4.1 24.5 75 -8 17.6
05:40 1009 29.8 838 24.75 -4.3 24.3 74 -8.3 17
05:45 1009 29.8 838 24.75 -4.3 24.2 73 -8.4 16.9
05:50 1009 29.8 838 24.75 -4.4 24 75 -8.2 17.3
05:55 1009 29.8 838 24.75 -4.8 23.4 76 -8.4 16.9
06:00 1009 29.8 838 24.75 -5.3 22.5 76 -8.9 16
06:05 1009 29.8 838 24.75 -5.6 21.9 74 -9.5 14.9
06:10 1009 29.8 838 24.75 -5.2 22.7 70 -9.9 14.2
06:15 1009 29.8 838 24.75 -4.7 23.5 68 -9.7 14.6
06:20 1009 29.8 838 24.75 -4.7 23.6 66 -10 14
06:25 1009 29.8 838 24.75 -4.5 23.9 66 -9.9 14.2
06:30 1009 29.8 838 24.75 -4.5 23.9 66 -9.9 14.3
06:35 1009 29.8 838 24.75 -4.5 24 66 -10 14
06:40 1009 29.8 838 24.75 -4.6 23.7 65 -10.1 13.8
06:45 1009 29.8 838 24.75 -4.7 23.6 66 -10.1 13.8
06:50 1009 29.8 838 24.75 -4.9 23.2 67 -10.1 13.8
06:55 1009 29.8 838 24.75 -5.6 21.8 69 -10.4 13.3
07:00 1009 29.8 838 24.75 -6.3 20.6 71 -10.8 12.6
07:05 1009 29.8 838 24.75 -5.9 21.5 68 -10.9 12.4
07:10 1009 29.8 838 24.75 -5.5 22.1 67 -10.7 12.7
07:15 1009 29.8 838 24.75 -5.3 22.5 65 -10.8 12.6
07:20 1009 29.8 838 24.75 -5.1 22.8 65 -10.8 12.6
07:25 1009 29.8 838 24.75 -4.9 23.1 64 -10.7 12.8
07:30 1009 29.8 838 24.75 -5.2 22.7 64 -11 12.3
07:35 1009 29.8 838 24.75 -5.5 22.1 64 -11.2 11.8
07:40 1009 29.8 838 24.75 -5.6 21.9 63 -11.5 11.3
07:45 1009 29.8 838 24.75 -5.6 22 63 -11.5 11.4
07:50 1009 29.8 838 24.75 -5.5 22.1 63 -11.4 11.4
07:55 1009 29.8 839 24.78 -5.4 22.3 69 -10.1 13.8
08:00 1009 29.8 839 24.78 -5.7 21.7 70 -10.3 13.5
08:05 1010 29.83 839 24.78 -5.7 21.7 70 -10.3 13.4
08:10 1010 29.83 839 24.78 -5 23 67 -10.2 13.6
08:15 1010 29.83 839 24.78 -4.8 23.3 67 -10 13.9
08:20 1010 29.83 839 24.78 -4.5 23.9 65 -10.2 13.6
08:25 1010 29.83 839 24.78 -4.5 23.9 64 -10.3 13.5
08:30 1010 29.83 839 24.78 -4.5 24 63 -10.6 13
08:35 1010 29.83 839 24.78 -4.2 24.4 62 -10.4 13.3
08:40 1009 29.8 839 24.78 -4.3 24.2 61 -10.7 12.8
08:45 1009 29.8 839 24.78 -4.6 23.7 63 -10.7 12.8
08:50 1009 29.8 839 24.78 -4.3 24.4 61 -10.8 12.6
08:55 1009 29.8 839 24.78 -3.5 25.8 58 -10.6 12.9
09:00 1009 29.8 839 24.78 -4.4 24.1 61 -10.8 12.6
09:05 1009 29.8 839 24.78 -5 22.9 63 -11.1 12
09:10 1009 29.8 838 24.75 -4.9 23.1 63 -10.9 12.5
09:15 1009 29.8 838 24.75 -4.6 23.7 62 -10.7 12.7
09:20 1009 29.8 838 24.75 -4.4 24 62 -10.6 12.9
09:25 1009 29.8 838 24.75 -4.3 24.3 62 -10.5 13.1
09:30 1009 29.8 838 24.75 -3.9 24.9 61 -10.5 13.2
09:35 1009 29.8 838 24.75 -3.7 25.3 61 -10.2 13.6
09:40 1009 29.8 838 24.75 -3.6 25.4 60 -10.4 13.3
09:45 1009 29.8 838 24.75 -3.2 26.3 58 -10.3 13.4
09:50 1009 29.8 838 24.75 -2.6 27.3 55 -10.4 13.3
09:55 1009 29.8 838 24.75 -2.4 27.6 54 -10.6 12.9
10:00 1009 29.8 838 24.75 -2.2 28.1 52 -10.8 12.5
10:05 1009 29.8 838 24.75 -2 28.5 50 -11 12.3
10:10 1009 29.8 838 24.75 -1.9 28.6 50 -11.1 12.1
10:15 1009 29.8 838 24.75 -1.7 28.9 52 -10.3 13.4
10:20 1009 29.8 838 24.75 -1.3 29.6 51 -10.2 13.6
10:25 1009 29.8 838 24.75 -1 30.2 50 -10.3 13.5
10:30 1009 29.8 838 24.75 -0.5 31 48 -10.2 13.7
10:35 1009 29.8 838 24.75 -0.1 31.9 48 -9.8 14.4
10:40 1009 29.8 839 24.78 -0 31.9 48 -9.9 14.2
10:45 1009 29.8 839 24.78 0.3 32.6 45 -10.4 13.2
10:50 1009 29.8 839 24.78 0.3 32.6 49 -9.3 15.3
10:55 1009 29.8 838 24.75 0.3 32.5 49 -9.2 15.4
11:00 1009 29.8 839 24.78 0.4 32.8 48 -9.5 14.9
11:05 1009 29.8 839 24.78 0.9 33.7 47 -9 15.7
11:10 1010 29.83 839 24.78 1.4 34.6 47 -8.8 16.1
11:15 1010 29.83 839 24.78 1.4 34.5 49 -8.2 17.3
11:20 1010 29.83 839 24.78 1.4 34.6 51 -7.7 18.1
11:25 1010 29.83 839 24.78 1.4 34.4 50 -7.9 17.8
11:30 1010 29.83 839 24.78 1.5 34.7 48 -8.2 17.2
11:35 1010 29.83 839 24.78 1.8 35.2 47 -8.3 17
11:40 1010 29.83 839 24.78 1.9 35.5 46 -8.6 16.5
11:45 1010 29.83 839 24.78 2.2 36 45 -8.6 16.6
11:50 1010 29.83 839 24.78 1.5 34.7 50 -7.9 17.8
11:55 1010 29.83 839 24.78 1.3 34.3 50 -8 17.6
12:00 1010 29.83 839 24.78 1.3 34.4 48 -8.5 16.7
12:05 1010 29.83 839 24.78 1.3 34.4 46 -9.1 15.7
12:10 1010 29.83 839 24.78 1.7 35 46 -8.8 16.2
12:15 1010 29.83 839 24.78 2.7 36.9 43 -8.6 16.6
12:20 1010 29.83 839 24.78 2.7 36.8 40 -9.6 14.8
12:25 1010 29.83 839 24.78 2.3 36.1 38 -10.6 12.9
12:30 1009 29.8 839 24.78 2.5 36.4 39 -10.2 13.6
12:35 1009 29.8 839 24.78 1.7 35 41 -10.3 13.4
12:40 1009 29.8 838 24.75 1.8 35.2 42 -9.9 14.2
12:45 1009 29.8 838 24.75 1.5 34.6 43 -9.8 14.3
12:50 1009 29.8 838 24.75 1.6 34.9 41 -10.4 13.3
12:55 1009 29.8 838 24.75 1.7 35 40 -10.5 13.1
13:00 1009 29.8 838 24.75 1.7 35 42 -9.8 14.3
13:05 1009 29.8 838 24.75 1.5 34.7 41 -10.4 13.3
13:10 1009 29.8 838 24.75 1.6 34.8 43 -9.8 14.4
13:15 1009 29.8 838 24.75 1.7 35 43 -9.5 14.9
13:20 1009 29.8 838 24.75 1.7 35 42 -10.1 13.9
13:25 1009 29.8 838 24.75 1.3 34.4 40 -10.7 12.7
13:30 1009 29.8 838 24.75 1.1 34 41 -10.6 12.8
13:35 1009 29.8 838 24.75 1.2 34.1 41 -10.7 12.7
13:40 1009 29.8 838 24.75 1.2 34.2 42 -10.3 13.4
13:45 1009 29.8 838 24.75 1.6 34.9 42 -10.1 13.9
13:50 1009 29.8 838 24.75 1.6 34.9 40 -10.5 13.1
13:55 1008 29.77 838 24.75 1.5 34.6 43 -9.8 14.4
14:00 1008 29.77 838 24.75 1.6 34.8 41 -10.3 13.4
14:05 1008 29.77 838 24.75 1.8 35.3 38 -11 12.2
14:10 1008 29.77 838 24.75 1.6 34.9 43 -9.8 14.4
14:15 1008 29.77 838 24.75 2.1 35.8 34 -12.3 9.8
14:20 1008 29.77 838 24.75 2.1 35.7 35 -12 10.3
14:25 1008 29.77 837 24.72 2.5 36.5 34 -11.9 10.5
14:30 1008 29.77 837 24.72 2.3 36.1 37 -11 12.1
14:35 1008 29.77 837 24.72 2 35.7 38 -10.9 12.4
14:40 1008 29.77 837 24.72 2 35.6 39 -10.6 12.9
14:45 1008 29.77 837 24.72 2.2 36 40 -10 14.1
14:50 1008 29.77 837 24.72 2.3 36.2 38 -10.6 13
14:55 1008 29.77 837 24.72 2.5 36.4 38 -10.3 13.4
15:00 1008 29.77 837 24.72 2.4 36.4 38 -10.6 13
15:05 1008 29.77 837 24.72 2.4 36.3 36 -11.1 12
15:10 1008 29.77 837 24.72 2.2 35.9 39 -10.4 13.2
15:15 1008 29.77 837 24.72 2 35.5 40 -10.4 13.2
15:20 1008 29.77 838 24.75 2 35.6 39 -10.6 13
15:25 1008 29.77 838 24.75 1.9 35.4 38 -11 12.3
15:30 1008 29.77 838 24.75 1.8 35.3 38 -11 12.1
15:35 1008 29.77 838 24.75 1.8 35.2 39 -10.7 12.7
15:40 1008 29.77 838 24.75 1.7 35.1 39 -10.9 12.4
15:45 1008 29.77 838 24.75 2.1 35.8 39 -10.5 13
15:50 1008 29.77 838 24.75 2 35.5 39 -10.5 13.2
15:55 1009 29.8 838 24.75 1.8 35.3 40 -10.3 13.5
16:00 1009 29.8 838 24.75 1.8 35.3 40 -10.4 13.2
16:05 1008 29.77 838 24.75 1.8 35.3 39 -10.6 13
16:10 1008 29.77 838 24.75 2.1 35.8 40 -10.2 13.7
16:15 1008 29.77 838 24.75 2.1 35.8 39 -10.5 13.2
16:20 1008 29.77 838 24.75 2.1 35.8 37 -11.1 12.1
16:25 1008 29.77 838 24.75 1.9 35.3 39 -10.8 12.5
16:30 1008 29.77 838 24.75 1.7 35 41 -10.3 13.5
16:35 1008 29.77 838 24.75 1.6 34.9 40 -10.6 12.9
16:40 1008 29.77 838 24.75 1.8 35.2 40 -10.4 13.2
16:45 1008 29.77 838 24.75 2 35.5 40 -10.2 13.7
16:50 1008 29.77 838 24.75 1.9 35.5 39 -10.6 12.9
16:55 1008 29.77 837 24.72 1.6 35 40 -10.6 12.9
17:00 1008 29.77 837 24.72 1.5 34.6 42 -10 14
17:05 1008 29.77 837 24.72 1.2 34.1 44 -9.9 14.2
17:10 1008 29.77 837 24.72 0.7 33.3 45 -9.9 14.1
17:15 1008 29.77 837 24.72 0.4 32.7 45 -10.2 13.7
17:20 1008 29.77 837 24.72 0.2 32.3 45 -10.4 13.3
17:25 1008 29.77 837 24.72 0.1 32.1 46 -10.1 13.8
17:30 1008 29.77 837 24.72 0 32.1 46 -10.3 13.4
17:35 1008 29.77 837 24.72 -0.1 31.7 45 -10.8 12.6
17:40 1008 29.77 837 24.72 0.1 32.2 44 -10.8 12.6
17:45 1008 29.77 837 24.72 0.1 32.2 44 -10.7 12.8
17:50 1008 29.77 837 24.72 -0.1 31.8 46 -10.5 13.1
17:55 1008 29.77 837 24.72 -0.3 31.5 45 -10.9 12.3
18:00 1008 29.77 837 24.72 -0.5 31 46 -10.8 12.5
18:05 1008 29.77 837 24.72 -0.7 30.7 48 -10.6 13
18:10 1008 29.77 837 24.72 -0.9 30.4 48 -10.7 12.8
18:15 1008 29.77 837 24.72 -0.9 30.4 45 -11.3 11.7
18:20 1008 29.77 837 24.72 -0.6 30.9 45 -11.2 11.9
18:25 1008 29.77 837 24.72 -0.7 30.7 46 -11 12.2
18:30 1008 29.77 837 24.72 -0.9 30.4 45 -11.4 11.5
18:35 1008 29.77 837 24.72 -1.2 29.9 47 -11.1 11.9
18:40 1008 29.77 837 24.72 -1.4 29.4 47 -11.4 11.5
18:45 1008 29.77 837 24.72 -1.2 29.8 47 -11.2 11.8
18:50 1008 29.77 837 24.72 -1.1 30 47 -11.2 11.9
18:55 1008 29.77 837 24.72 -1.1 30 47 -11.1 12
19:00 1008 29.77 837 24.72 -1.3 29.7 47 -11.1 12
19:05 1008 29.77 837 24.72 -1.2 29.8 47 -11.3 11.7
19:10 1008 29.77 837 24.72 -1.1 30.1 45 -11.5 11.3
19:15 1008 29.77 837 24.72 -1.1 30.1 46 -11.2 11.9
19:20 1008 29.77 837 24.72 -1.2 29.9 47 -11.2 11.8
19:25 1008 29.77 837 24.72 -1.4 29.4 46 -11.5 11.3
19:30 1008 29.77 837 24.72 -1.5 29.4 45 -11.9 10.5
19:35 1008 29.77 837 24.72 -1.3 29.7 45 -11.6 11
19:40 1008 29.77 837 24.72 -1.2 29.8 45 -11.6 11.2
19:45 1008 29.77 837 24.72 -1.2 29.9 46 -11.3 11.6
19:50 1008 29.77 837 24.72 -1.2 29.9 46 -11.3 11.6
19:55 1008 29.77 837 24.72 -1.1 30 47 -11.2 11.9
20:00 1008 29.77 837 24.72 -0.9 30.3 45 -11.5 11.3
20:05 1008 29.77 837 24.72 -0.7 30.7 43 -11.9 10.6
20:10 1007 29.74 837 24.72 -0.5 31 43 -11.6 11.1
20:15 1008 29.77 837 24.72 -0.6 30.9 44 -11.4 11.4
20:20 1008 29.77 837 24.72 -0.7 30.7 44 -11.6 11.1
20:25 1007 29.74 837 24.72 -0.5 31.1 42 -11.8 10.7
20:30 1007 29.74 837 24.72 -0.2 31.6 42 -11.6 11.1
20:35 1007 29.74 837 24.72 0.1 32.3 43 -11 12.1
20:40 1007 29.74 837 24.72 0.4 32.6 42 -11.2 11.9
20:45 1007 29.74 837 24.72 0.5 32.8 43 -10.6 12.9
20:50 1007 29.74 837 24.72 0.3 32.5 46 -10 14
20:55 1007 29.74 836 24.69 0 32 46 -10.3 13.5
21:00 1007 29.74 836 24.69 -0.1 31.8 47 -10.1 13.8
21:05 1007 29.74 836 24.69 -0.2 31.6 47 -10.1 13.7
21:10 1007 29.74 836 24.69 -0.1 31.8 47 -10.1 13.8
21:15 1007 29.74 836 24.69 -0.1 31.8 44 -10.8 12.5
21:20 1007 29.74 836 24.69 -0 32 46 -10.4 13.3
21:25 1007 29.74 836 24.69 0.1 32.2 44 -10.7 12.8
21:30 1007 29.74 836 24.69 0.2 32.3 47 -9.9 14.1
21:35 1007 29.74 836 24.69 0.1 32.3 44 -10.6 12.9
21:40 1007 29.74 836 24.69 0.2 32.3 44 -10.6 12.9
21:45 1007 29.74 836 24.69 0.3 32.5 44 -10.6 13
21:50 1007 29.74 836 24.69 0.4 32.7 43 -10.8 12.6
21:55 1007 29.74 836 24.69 0.4 32.6 44 -10.6 12.8
22:00 1007 29.74 836 24.69 0.2 32.4 45 -10.3 13.5
22:05 1007 29.74 836 24.69 -0 31.9 45 -10.5 13.1
22:10 1007 29.74 836 24.69 -0.8 30.5 49 -10.3 13.4
22:15 1007 29.74 836 24.69 -1.3 29.7 50 -10.4 13.3
22:20 1007 29.74 836 24.69 -1.5 29.4 49 -10.8 12.6
22:25 1007 29.74 836 24.69 -1.2 29.8 51 -10 14
22:30 1007 29.74 836 24.69 -1 30.2 49 -10.3 13.4
22:35 1007 29.74 836 24.69 -1 30.2 50 -10.2 13.7
22:40 1007 29.74 836 24.69 -0.8 30.5 48 -10.6 12.9
22:45 1007 29.74 836 24.69 -0.8 30.6 45 -11.3 11.7
22:50 1007 29.74 836 24.69 -0.3 31.4 45 -10.9 12.4
22:55 1007 29.74 836 24.69 0.3 32.6 44 -10.7 12.8
23:00 1006 29.71 836 24.69 0.2 32.4 48 -9.6 14.7
23:05 1007 29.74 836 24.69 -0.5 31.1 51 -9.5 14.9
23:10 1006 29.71 836 24.69 -0.6 31 46 -10.8 12.6
23:15 1006 29.71 836 24.69 -0.1 31.7 47 -10.3 13.5
23:20 1006 29.71 836 24.69 -0.2 31.6 48 -10 14
23:25 1006 29.71 836 24.69 -0.3 31.5 47 -10.4 13.3
23:30 1006 29.71 836 24.69 -0.2 31.6 50 -9.5 15
23:35 1006 29.71 836 24.69 -0.5 31.2 50 -9.6 14.7
23:40 1006 29.71 835 24.66 -0.2 31.6 49 -9.7 14.6
23:45 1006 29.71 835 24.66 -0.8 30.6 53 -9.2 15.5
23:50 1006 29.71 835 24.66 -1 30.1 51 -9.9 14.2
23:55 1006 29.71 835 24.66 -0.6 31 54 -8.8 16.2
24:00 1006 29.71 835 24.66 -0.6 30.9 54 -8.8 16.2